Time;durP1;ratioP1;P1;durP2;ratioP2;P2;SDS_P1;SDS_P2;PMS_P1;PMS_P2;Temp;Humidity;BMP_temperature;BMP_pressure;BME280_temperature;BME280_humidity;BME280_pressure;Samples;Min_cycle;Max_cycle;Signal;HPM_P1;HPM_P2
2024/03/23 00:00:08;;;;;;;;;;;8.00;99.90;;;;;;5091600;28;19959;-74
2024/03/23 00:02:34;;;;;;;;;;;7.90;99.90;;;;;;5091635;28;19969;-74
2024/03/23 00:05:00;;;;;;;;;;;7.90;99.90;;;;;;5110087;28;19958;-74
2024/03/23 00:07:25;;;;;;;;;;;7.90;99.90;;;;;;5091653;28;20014;-74
2024/03/23 00:09:51;;;;;;;;;;;8.00;99.90;;;;;;5109930;28;19904;-73
2024/03/23 00:12:18;;;;;;;;;;;7.90;99.90;;;;;;5109787;28;19923;-73
2024/03/23 00:14:43;;;;;;;;;;;7.90;99.90;;;;;;5091963;28;19955;-74
2024/03/23 00:17:11;;;;;;;;;;;7.90;99.90;;;;;;5109767;28;20352;-75
2024/03/23 00:19:37;;;;;;;;;;;7.90;99.90;;;;;;5076674;28;20326;-73
2024/03/23 00:22:03;;;;;;;;;;;7.90;99.90;;;;;;5095337;28;19950;-73
2024/03/23 00:24:29;;;;;;;;;;;7.80;99.90;;;;;;5113479;28;19977;-73
2024/03/23 00:26:55;;;;;;;;;;;7.70;99.90;;;;;;5113692;28;19915;-74
2024/03/23 00:29:21;;;;;;;;;;;7.70;99.90;;;;;;5113703;28;20368;-74
2024/03/23 00:31:47;;;;;;;;;;;7.70;99.90;;;;;;5113687;28;20010;-73
2024/03/23 00:34:13;;;;;;;;;;;7.60;99.90;;;;;;5096592;28;20341;-74
2024/03/23 00:36:40;;;;;;;;;;;7.60;99.90;;;;;;5114910;28;19949;-73
2024/03/23 00:39:08;;;;;;;;;;;7.60;99.90;;;;;;5095741;28;20306;-73
2024/03/23 00:41:34;;;;;;;;;;;7.60;99.90;;;;;;5095904;28;20003;-72
2024/03/23 00:44:00;;;;;;;;;;;7.50;99.90;;;;;;5096807;28;19998;-74
2024/03/23 00:46:26;;;;;;;;;;;7.60;99.90;;;;;;5117300;28;19927;-74
2024/03/23 00:48:52;;;;;;;;;;;7.60;99.90;;;;;;5099070;28;20279;-73
2024/03/23 00:51:18;;;;;;;;;;;7.60;99.90;;;;;;5114588;28;19907;-76
2024/03/23 00:53:44;;;;;;;;;;;7.60;99.90;;;;;;5102632;28;20454;-75
2024/03/23 00:56:09;;;;;;;;;;;7.60;99.90;;;;;;5100833;28;19908;-75
2024/03/23 00:58:35;;;;;;;;;;;7.60;99.90;;;;;;5116864;28;19954;-74
2024/03/23 01:01:00;;;;;;;;;;;7.50;99.90;;;;;;5113709;28;20372;-73
2024/03/23 01:03:26;;;;;;;;;;;7.50;99.90;;;;;;5095997;28;19912;-74
2024/03/23 01:05:53;;;;;;;;;;;7.50;99.90;;;;;;5113822;28;19947;-74
2024/03/23 01:08:18;;;;;;;;;;;7.40;99.90;;;;;;5094973;28;20407;-74
2024/03/23 01:10:53;;;;;;;;;;;7.50;99.90;;;;;;5112748;28;20006;-74
2024/03/23 01:13:21;;;;;;;;;;;7.40;99.90;;;;;;5113380;28;19957;-74
2024/03/23 01:15:51;;;;;;;;;;;7.40;99.90;;;;;;5094940;28;19912;-73
2024/03/23 01:18:17;;;;;;;;;;;7.30;99.90;;;;;;5113512;28;19964;-74
2024/03/23 01:20:43;;;;;;;;;;;7.30;99.90;;;;;;5094901;28;19908;-74
2024/03/23 01:23:08;;;;;;;;;;;7.30;99.90;;;;;;5113189;28;19999;-76
2024/03/23 01:25:34;;;;;;;;;;;7.20;99.90;;;;;;5112767;28;19991;-74
2024/03/23 01:27:59;;;;;;;;;;;7.20;99.90;;;;;;5094366;28;19908;-73
2024/03/23 01:30:25;;;;;;;;;;;7.20;99.90;;;;;;5112627;28;19907;-73
2024/03/23 01:32:50;;;;;;;;;;;7.20;99.90;;;;;;5112361;28;20010;-74
2024/03/23 01:35:16;;;;;;;;;;;7.10;99.90;;;;;;5094031;28;19955;-73
2024/03/23 01:37:41;;;;;;;;;;;7.10;99.90;;;;;;5094025;28;19976;-74
2024/03/23 01:40:07;;;;;;;;;;;7.10;99.90;;;;;;5093948;28;19958;-73
2024/03/23 01:42:33;;;;;;;;;;;7.10;99.90;;;;;;5093841;28;19907;-73
2024/03/23 01:44:58;;;;;;;;;;;7.10;99.90;;;;;;5093922;28;19907;-74
2024/03/23 01:47:24;;;;;;;;;;;7.00;99.90;;;;;;5093830;28;20380;-74
2024/03/23 01:49:49;;;;;;;;;;;7.10;99.90;;;;;;5093988;28;19904;-73
2024/03/23 01:52:15;;;;;;;;;;;7.00;99.90;;;;;;5093803;28;20049;-74
2024/03/23 01:54:40;;;;;;;;;;;7.00;99.90;;;;;;5112124;28;19903;-74
2024/03/23 01:57:06;;;;;;;;;;;6.90;99.90;;;;;;5111913;28;19919;-74
2024/03/23 01:59:32;;;;;;;;;;;6.90;99.90;;;;;;5111776;28;19998;-73
2024/03/23 02:01:57;;;;;;;;;;;7.00;99.90;;;;;;5111866;28;19908;-73
2024/03/23 02:04:23;;;;;;;;;;;7.00;99.90;;;;;;5093602;28;19996;-74
2024/03/23 02:06:48;;;;;;;;;;;7.00;99.90;;;;;;5093444;28;19915;-74
2024/03/23 02:09:15;;;;;;;;;;;7.00;99.90;;;;;;5111619;28;19912;-73
2024/03/23 02:11:40;;;;;;;;;;;6.90;99.90;;;;;;5093279;28;20595;-74
2024/03/23 02:14:07;;;;;;;;;;;6.90;99.90;;;;;;5111876;28;19907;-74
2024/03/23 02:16:33;;;;;;;;;;;6.90;99.90;;;;;;5093790;28;19957;-73
2024/03/23 02:18:58;;;;;;;;;;;6.90;99.90;;;;;;5111959;28;19903;-74
2024/03/23 02:21:24;;;;;;;;;;;6.90;99.90;;;;;;5111447;28;19933;-72
2024/03/23 02:23:49;;;;;;;;;;;6.80;99.90;;;;;;5111361;28;19910;-72
2024/03/23 02:26:16;;;;;;;;;;;6.90;99.90;;;;;;5111319;28;19915;-74
2024/03/23 02:28:42;;;;;;;;;;;6.80;99.90;;;;;;5093067;28;19904;-73
2024/03/23 02:31:07;;;;;;;;;;;6.90;99.90;;;;;;5092842;28;19916;-73
2024/03/23 02:33:34;;;;;;;;;;;6.90;99.90;;;;;;5093259;28;19918;-74
2024/03/23 02:35:59;;;;;;;;;;;6.90;99.90;;;;;;5111108;28;20006;-74
2024/03/23 02:38:25;;;;;;;;;;;7.00;99.90;;;;;;5092845;28;20002;-73
2024/03/23 02:40:50;;;;;;;;;;;7.00;99.90;;;;;;5111239;28;19907;-74
2024/03/23 02:43:16;;;;;;;;;;;7.00;99.90;;;;;;5110352;28;19955;-73
2024/03/23 02:45:42;;;;;;;;;;;7.10;99.90;;;;;;5111150;28;19907;-73
2024/03/23 02:48:07;;;;;;;;;;;7.10;99.90;;;;;;5110856;28;19908;-73
2024/03/23 02:50:33;;;;;;;;;;;7.00;99.90;;;;;;5111030;28;19947;-74
2024/03/23 02:52:59;;;;;;;;;;;7.00;99.90;;;;;;5092637;28;20387;-74
2024/03/23 02:55:24;;;;;;;;;;;7.00;99.90;;;;;;5092623;28;20027;-74
2024/03/23 02:57:50;;;;;;;;;;;7.00;99.90;;;;;;5110842;28;19908;-74
2024/03/23 03:00:16;;;;;;;;;;;7.00;99.90;;;;;;5092495;28;19911;-74
2024/03/23 03:02:41;;;;;;;;;;;7.00;99.90;;;;;;5092492;28;19953;-73
2024/03/23 03:05:08;;;;;;;;;;;6.90;99.90;;;;;;5110862;28;20434;-73
2024/03/23 03:07:34;;;;;;;;;;;6.90;99.90;;;;;;5092409;28;19907;-74
2024/03/23 03:09:59;;;;;;;;;;;6.90;99.90;;;;;;5092410;28;19914;-73
2024/03/23 03:12:25;;;;;;;;;;;6.90;99.90;;;;;;5110513;28;19916;-73
2024/03/23 03:14:50;;;;;;;;;;;6.80;99.90;;;;;;5111492;28;19908;-74
2024/03/23 03:17:16;;;;;;;;;;;6.80;99.90;;;;;;5112347;28;19911;-73
2024/03/23 03:19:42;;;;;;;;;;;6.80;99.90;;;;;;5092553;28;20273;-73
2024/03/23 03:22:08;;;;;;;;;;;6.80;99.90;;;;;;5110520;28;19984;-74
2024/03/23 03:24:33;;;;;;;;;;;6.90;99.90;;;;;;5092035;28;20304;-73
2024/03/23 03:26:59;;;;;;;;;;;6.90;99.90;;;;;;5110403;28;19915;-73
2024/03/23 03:29:25;;;;;;;;;;;6.90;99.90;;;;;;5110376;28;19908;-73
2024/03/23 03:31:51;;;;;;;;;;;6.90;99.90;;;;;;5092098;28;19911;-73
2024/03/23 03:34:16;;;;;;;;;;;7.00;99.90;;;;;;5111214;28;19908;-73
2024/03/23 03:36:42;;;;;;;;;;;7.10;99.90;;;;;;5092310;28;19915;-73
2024/03/23 03:39:07;;;;;;;;;;;7.10;99.90;;;;;;5110319;28;19908;-73
2024/03/23 03:41:33;;;;;;;;;;;7.20;99.90;;;;;;5110316;28;19908;-73
2024/03/23 03:44:02;;;;;;;;;;;7.30;99.90;;;;;;5110437;28;19908;-73
2024/03/23 03:46:28;;;;;;;;;;;7.30;99.90;;;;;;5110275;28;19907;-74
2024/03/23 03:48:56;;;;;;;;;;;7.40;99.90;;;;;;5092025;28;19957;-74
2024/03/23 03:51:22;;;;;;;;;;;7.60;99.90;;;;;;5110073;28;19915;-74
2024/03/23 03:53:47;;;;;;;;;;;7.70;99.90;;;;;;5094128;28;19914;-74
2024/03/23 03:56:13;;;;;;;;;;;7.70;99.90;;;;;;5114374;28;19911;-74
2024/03/23 03:58:40;;;;;;;;;;;7.70;99.90;;;;;;5096113;28;20398;-73
2024/03/23 04:01:05;;;;;;;;;;;7.70;99.90;;;;;;5096166;28;20334;-73
2024/03/23 04:03:31;;;;;;;;;;;7.80;99.90;;;;;;5117670;28;19903;-76
2024/03/23 04:05:56;;;;;;;;;;;7.90;99.90;;;;;;5119795;28;19908;-74
2024/03/23 04:08:22;;;;;;;;;;;7.90;99.90;;;;;;5098411;28;19908;-74
2024/03/23 04:10:47;;;;;;;;;;;8.00;99.90;;;;;;5120372;28;19907;-74
2024/03/23 04:13:13;;;;;;;;;;;8.00;99.90;;;;;;5101674;28;20389;-76
2024/03/23 04:15:39;;;;;;;;;;;8.00;99.90;;;;;;5117663;28;19954;-73
2024/03/23 04:18:05;;;;;;;;;;;8.00;99.90;;;;;;5095961;28;19907;-74
2024/03/23 04:20:30;;;;;;;;;;;7.90;99.90;;;;;;5095803;28;19929;-74
2024/03/23 04:22:56;;;;;;;;;;;7.90;99.90;;;;;;5095511;28;19918;-74
2024/03/23 04:25:21;;;;;;;;;;;8.00;99.90;;;;;;5113604;28;19919;-74
2024/03/23 04:27:47;;;;;;;;;;;8.00;99.90;;;;;;5095410;28;19915;-74
2024/03/23 04:30:12;;;;;;;;;;;8.00;99.90;;;;;;5095467;28;19907;-73
2024/03/23 04:32:38;;;;;;;;;;;7.90;99.90;;;;;;5095542;28;19923;-74
2024/03/23 04:35:09;;;;;;;;;;;7.90;99.90;;;;;;5095454;28;19908;-74
2024/03/23 04:37:35;;;;;;;;;;;7.80;99.90;;;;;;5095271;28;19915;-73
2024/03/23 04:40:04;;;;;;;;;;;7.80;99.90;;;;;;5095258;28;19907;-74
2024/03/23 04:42:29;;;;;;;;;;;7.70;99.90;;;;;;5113583;28;20057;-73
2024/03/23 04:44:55;;;;;;;;;;;7.70;99.90;;;;;;5095189;28;20426;-74
2024/03/23 04:47:21;;;;;;;;;;;7.70;99.90;;;;;;5095285;28;19904;-74
2024/03/23 04:49:46;;;;;;;;;;;7.70;99.90;;;;;;5113287;28;20372;-72
2024/03/23 04:52:12;;;;;;;;;;;7.60;99.90;;;;;;5094976;28;20422;-74
2024/03/23 04:54:37;;;;;;;;;;;7.70;99.90;;;;;;5094951;28;20402;-72
2024/03/23 04:57:03;;;;;;;;;;;7.80;99.90;;;;;;5095002;28;20307;-74
2024/03/23 04:59:29;;;;;;;;;;;7.80;99.90;;;;;;5112664;28;20329;-73
2024/03/23 05:01:54;;;;;;;;;;;7.80;99.90;;;;;;5112339;28;19914;-73
2024/03/23 05:04:20;;;;;;;;;;;7.90;99.90;;;;;;5110852;28;19914;-73
2024/03/23 05:06:45;;;;;;;;;;;7.90;99.90;;;;;;5110818;28;19907;-74
2024/03/23 05:09:11;;;;;;;;;;;8.00;99.90;;;;;;5092503;28;19907;-74
2024/03/23 05:11:37;;;;;;;;;;;8.10;99.90;;;;;;5110929;28;19916;-74
2024/03/23 05:14:03;;;;;;;;;;;8.20;99.90;;;;;;5093520;28;19994;-73
2024/03/23 05:16:28;;;;;;;;;;;8.30;99.90;;;;;;5112595;28;20068;-73
2024/03/23 05:18:54;;;;;;;;;;;8.50;99.90;;;;;;5094083;28;19994;-73
2024/03/23 05:21:20;;;;;;;;;;;8.60;99.90;;;;;;5112609;28;20400;-74
2024/03/23 05:23:45;;;;;;;;;;;8.70;99.90;;;;;;5112362;28;20281;-74
2024/03/23 05:26:11;;;;;;;;;;;8.80;99.90;;;;;;5094703;28;19916;-74
2024/03/23 05:28:36;;;;;;;;;;;8.90;99.90;;;;;;5112909;28;20374;-74
2024/03/23 05:31:02;;;;;;;;;;;9.00;99.90;;;;;;5112385;28;20499;-73
2024/03/23 05:33:27;;;;;;;;;;;9.10;99.90;;;;;;5112224;28;20383;-74
2024/03/23 05:35:56;;;;;;;;;;;9.20;99.90;;;;;;5112297;28;19953;-73
2024/03/23 05:38:22;;;;;;;;;;;9.20;99.90;;;;;;5094072;28;20324;-74
2024/03/23 05:40:57;;;;;;;;;;;9.40;99.90;;;;;;5112202;28;20388;-73
2024/03/23 05:43:23;;;;;;;;;;;9.50;99.90;;;;;;5092557;28;19907;-73
2024/03/23 05:45:55;;;;;;;;;;;9.70;99.90;;;;;;5093391;28;20703;-73
2024/03/23 05:48:21;;;;;;;;;;;9.80;99.90;;;;;;5111940;28;20376;-72
2024/03/23 05:50:47;;;;;;;;;;;10.00;99.90;;;;;;5093483;28;19918;-71
2024/03/23 05:53:13;;;;;;;;;;;10.10;99.90;;;;;;5093583;28;19908;-73
2024/03/23 05:55:38;;;;;;;;;;;10.30;99.90;;;;;;5093411;28;19908;-74
2024/03/23 05:58:04;;;;;;;;;;;10.60;99.90;;;;;;5105914;28;19957;-73
2024/03/23 06:00:29;;;;;;;;;;;10.80;99.90;;;;;;5111511;28;19930;-73
2024/03/23 06:02:55;;;;;;;;;;;11.10;99.90;;;;;;5111543;28;19907;-74
2024/03/23 06:05:20;;;;;;;;;;;11.40;99.90;;;;;;5092880;28;19908;-73
2024/03/23 06:07:46;;;;;;;;;;;11.80;99.90;;;;;;5093100;28;19925;-74
2024/03/23 06:10:11;;;;;;;;;;;12.10;99.90;;;;;;5111378;28;20399;-74
2024/03/23 06:12:37;;;;;;;;;;;12.30;99.90;;;;;;5111234;28;20021;-73
2024/03/23 06:15:03;;;;;;;;;;;12.50;99.90;;;;;;5092805;28;20015;-74
2024/03/23 06:17:28;;;;;;;;;;;12.60;99.90;;;;;;5109769;28;20356;-74
2024/03/23 06:19:54;;;;;;;;;;;12.70;99.90;;;;;;5110564;28;19912;-74
2024/03/23 06:22:20;;;;;;;;;;;12.80;99.90;;;;;;5092528;28;19903;-74
2024/03/23 06:24:46;;;;;;;;;;;12.90;99.90;;;;;;5091697;28;19919;-74
2024/03/23 06:27:11;;;;;;;;;;;13.00;99.90;;;;;;5110290;28;19907;-74
2024/03/23 06:29:37;;;;;;;;;;;13.00;99.90;;;;;;5092264;28;19912;-74
2024/03/23 06:32:03;;;;;;;;;;;13.10;99.90;;;;;;5110845;28;19922;-74
2024/03/23 06:34:29;;;;;;;;;;;13.10;99.90;;;;;;5110594;28;20358;-74
2024/03/23 06:36:54;;;;;;;;;;;13.20;99.90;;;;;;5110761;28;19978;-73
2024/03/23 06:39:20;;;;;;;;;;;13.20;99.90;;;;;;5092538;28;20282;-73
2024/03/23 06:41:51;;;;;;;;;;;13.20;99.90;;;;;;5110850;28;19960;-73
2024/03/23 06:44:17;;;;;;;;;;;13.20;99.90;;;;;;5092230;28;19918;-73
2024/03/23 06:46:42;;;;;;;;;;;13.20;99.90;;;;;;5092177;28;20384;-74
2024/03/23 06:49:08;;;;;;;;;;;13.30;99.90;;;;;;5110371;28;19952;-74
2024/03/23 06:51:34;;;;;;;;;;;13.30;99.90;;;;;;5110862;28;19912;-74
2024/03/23 06:53:59;;;;;;;;;;;13.40;99.90;;;;;;5110841;28;19911;-74
2024/03/23 06:56:25;;;;;;;;;;;13.50;99.30;;;;;;5110855;28;19908;-74
2024/03/23 06:58:50;;;;;;;;;;;13.60;99.10;;;;;;5086646;28;19957;-72
2024/03/23 07:01:16;;;;;;;;;;;13.60;99.60;;;;;;5110093;28;19907;-72
2024/03/23 07:03:41;;;;;;;;;;;13.80;99.40;;;;;;5092462;28;19956;-71
2024/03/23 07:06:09;;;;;;;;;;;14.00;98.40;;;;;;5092026;28;20375;-72
2024/03/23 07:08:34;;;;;;;;;;;14.20;98.10;;;;;;5110731;28;19938;-72
2024/03/23 07:11:00;;;;;;;;;;;14.30;97.50;;;;;;5110536;28;20349;-73
2024/03/23 07:13:25;;;;;;;;;;;14.60;96.00;;;;;;5092252;28;19961;-73
2024/03/23 07:15:51;;;;;;;;;;;14.80;95.00;;;;;;5110444;28;19930;-72
2024/03/23 07:18:16;;;;;;;;;;;15.00;94.10;;;;;;5092028;28;19911;-73
2024/03/23 07:20:42;;;;;;;;;;;15.20;93.80;;;;;;5110580;28;19968;-74
2024/03/23 07:23:07;;;;;;;;;;;15.50;91.80;;;;;;5110488;28;20056;-72
2024/03/23 07:25:33;;;;;;;;;;;15.80;90.70;;;;;;5110611;28;20384;-73
2024/03/23 07:27:59;;;;;;;;;;;16.20;89.40;;;;;;5092329;28;19915;-74
2024/03/23 07:30:24;;;;;;;;;;;16.30;81.60;;;;;;5110755;28;19904;-76
2024/03/23 07:32:50;;;;;;;;;;;16.30;80.30;;;;;;5092153;28;20434;-74
2024/03/23 07:35:16;;;;;;;;;;;16.30;80.40;;;;;;5092146;28;19904;-75
2024/03/23 07:37:42;;;;;;;;;;;16.40;77.30;;;;;;5092446;28;20352;-74
2024/03/23 07:40:07;;;;;;;;;;;16.60;77.60;;;;;;5092068;28;19990;-74
2024/03/23 07:42:33;;;;;;;;;;;16.80;77.20;;;;;;5110469;28;20398;-73
2024/03/23 07:44:58;;;;;;;;;;;17.10;75.40;;;;;;5110157;28;19934;-73
2024/03/23 07:47:24;;;;;;;;;;;17.60;73.80;;;;;;5110106;28;19903;-74
2024/03/23 07:49:49;;;;;;;;;;;18.00;70.70;;;;;;5091965;28;19907;-74
2024/03/23 07:52:15;;;;;;;;;;;18.20;68.90;;;;;;5110144;28;20010;-74
2024/03/23 07:54:41;;;;;;;;;;;18.10;68.30;;;;;;5110232;28;19908;-73
2024/03/23 07:57:06;;;;;;;;;;;17.90;66.80;;;;;;5110024;28;20015;-74
2024/03/23 07:59:33;;;;;;;;;;;17.80;68.00;;;;;;5109944;28;20049;-74
2024/03/23 08:01:59;;;;;;;;;;;17.80;67.30;;;;;;5091727;28;19907;-73
2024/03/23 08:04:25;;;;;;;;;;;17.80;67.50;;;;;;5110107;28;19910;-73
2024/03/23 08:06:50;;;;;;;;;;;17.80;67.90;;;;;;5091662;28;19908;-74
2024/03/23 08:09:16;;;;;;;;;;;17.90;67.70;;;;;;5091642;28;19912;-74
2024/03/23 08:11:43;;;;;;;;;;;17.90;66.90;;;;;;5110071;28;19916;-73
2024/03/23 08:14:09;;;;;;;;;;;17.80;66.40;;;;;;5109880;28;19914;-72
2024/03/23 08:16:35;;;;;;;;;;;17.90;66.60;;;;;;5109801;28;19934;-74
2024/03/23 08:19:02;;;;;;;;;;;17.80;65.70;;;;;;5109813;28;19904;-74
2024/03/23 08:21:28;;;;;;;;;;;17.50;65.30;;;;;;5091471;28;19968;-73
2024/03/23 08:23:54;;;;;;;;;;;17.30;65.70;;;;;;5109871;28;19994;-74
2024/03/23 08:26:19;;;;;;;;;;;17.30;66.50;;;;;;5091508;28;19956;-74
2024/03/23 08:28:45;;;;;;;;;;;17.10;66.80;;;;;;5091475;28;19914;-73
2024/03/23 08:31:11;;;;;;;;;;;17.00;68.30;;;;;;5109698;28;19912;-73
2024/03/23 08:33:37;;;;;;;;;;;17.10;68.70;;;;;;5109709;28;19961;-73
2024/03/23 08:36:03;;;;;;;;;;;17.40;67.90;;;;;;5091201;28;19914;-73
2024/03/23 08:38:29;;;;;;;;;;;17.80;66.20;;;;;;5109669;28;19990;-74
2024/03/23 08:40:58;;;;;;;;;;;18.30;66.60;;;;;;5111981;28;20431;-73
2024/03/23 08:43:23;;;;;;;;;;;19.20;63.90;;;;;;5113193;28;19965;-72
2024/03/23 08:45:49;;;;;;;;;;;20.20;61.00;;;;;;5095191;28;20737;-73
2024/03/23 08:48:14;;;;;;;;;;;20.80;58.80;;;;;;5113367;28;20645;-73
2024/03/23 08:50:40;;;;;;;;;;;21.50;56.70;;;;;;5113306;28;20375;-73
2024/03/23 08:53:05;;;;;;;;;;;22.10;53.90;;;;;;5113260;28;19911;-73
2024/03/23 08:55:31;;;;;;;;;;;22.10;52.40;;;;;;5094813;28;19910;-74
2024/03/23 08:57:56;;;;;;;;;;;21.80;51.90;;;;;;5094651;28;19908;-74
2024/03/23 09:00:22;;;;;;;;;;;21.30;53.30;;;;;;5112916;28;19903;-73
2024/03/23 09:02:48;;;;;;;;;;;21.00;53.50;;;;;;5094489;28;19995;-73
2024/03/23 09:05:13;;;;;;;;;;;20.70;54.40;;;;;;5112626;28;19991;-74
2024/03/23 09:07:39;;;;;;;;;;;20.30;55.00;;;;;;5113018;28;19903;-74
2024/03/23 09:10:05;;;;;;;;;;;20.10;56.30;;;;;;5094576;28;19904;-74
2024/03/23 09:12:30;;;;;;;;;;;19.70;56.90;;;;;;5112765;28;20024;-74
2024/03/23 09:14:56;;;;;;;;;;;19.50;57.30;;;;;;5112732;28;20360;-73
2024/03/23 09:17:21;;;;;;;;;;;19.30;57.90;;;;;;5094358;28;19943;-74
2024/03/23 09:19:47;;;;;;;;;;;19.50;58.30;;;;;;5112576;28;19957;-73
2024/03/23 09:22:12;;;;;;;;;;;19.60;58.60;;;;;;5094436;28;19904;-74
2024/03/23 09:24:38;;;;;;;;;;;20.20;57.80;;;;;;5094087;28;19915;-73
2024/03/23 09:27:04;;;;;;;;;;;20.50;56.00;;;;;;5112513;28;19912;-73
2024/03/23 09:29:29;;;;;;;;;;;20.60;56.10;;;;;;5093935;28;19927;-74
2024/03/23 09:31:55;;;;;;;;;;;20.60;55.60;;;;;;5112393;28;19923;-73
2024/03/23 09:34:20;;;;;;;;;;;20.70;54.00;;;;;;5093954;28;19904;-74
2024/03/23 09:36:47;;;;;;;;;;;20.40;54.60;;;;;;5094029;28;19915;-74
2024/03/23 09:39:13;;;;;;;;;;;19.90;55.40;;;;;;5093911;28;19968;-74
2024/03/23 09:41:39;;;;;;;;;;;20.00;57.50;;;;;;5093844;28;20368;-73
2024/03/23 09:44:05;;;;;;;;;;;20.50;55.80;;;;;;5094170;28;19908;-73
2024/03/23 09:46:34;;;;;;;;;;;20.90;55.50;;;;;;5093647;28;19967;-73
2024/03/23 09:49:00;;;;;;;;;;;21.00;54.70;;;;;;5093886;28;20390;-73
2024/03/23 09:51:25;;;;;;;;;;;21.00;54.40;;;;;;5111861;28;19911;-74
2024/03/23 09:53:52;;;;;;;;;;;20.70;55.10;;;;;;5111865;28;19904;-73
2024/03/23 09:56:18;;;;;;;;;;;21.00;54.00;;;;;;5112098;28;19938;-74
2024/03/23 09:58:43;;;;;;;;;;;21.10;54.30;;;;;;5093609;28;19907;-73
2024/03/23 10:01:09;;;;;;;;;;;21.00;53.80;;;;;;5111718;28;19907;-74
2024/03/23 10:03:44;;;;;;;;;;;20.90;54.40;;;;;;5112030;28;19918;-73
2024/03/23 10:06:10;;;;;;;;;;;20.70;54.90;;;;;;5111784;28;20384;-73
2024/03/23 10:08:35;;;;;;;;;;;20.80;55.20;;;;;;5093054;28;19998;-73
2024/03/23 10:11:15;;;;;;;;;;;21.40;54.30;;;;;;5093432;28;20292;-73
2024/03/23 10:13:44;;;;;;;;;;;21.40;53.20;;;;;;5111718;28;19936;-73
2024/03/23 10:16:09;;;;;;;;;;;21.60;52.00;;;;;;5093149;28;19951;-73
2024/03/23 10:18:38;;;;;;;;;;;21.70;51.60;;;;;;5093312;28;19946;-74
2024/03/23 10:21:08;;;;;;;;;;;21.70;51.40;;;;;;5111312;28;19983;-74
2024/03/23 10:23:38;;;;;;;;;;;21.30;52.90;;;;;;5093026;28;19933;-74
2024/03/23 10:26:16;;;;;;;;;;;21.30;51.80;;;;;;5110992;28;19917;-74
2024/03/23 10:28:51;;;;;;;;;;;21.20;52.10;;;;;;5111366;28;19907;-73
2024/03/23 10:31:17;;;;;;;;;;;21.30;51.90;;;;;;5111016;28;19915;-74
2024/03/23 10:33:46;;;;;;;;;;;21.30;51.80;;;;;;5092925;28;19956;-73
2024/03/23 10:36:12;;;;;;;;;;;21.70;50.80;;;;;;5105335;28;19908;-73
2024/03/23 10:38:40;;;;;;;;;;;22.10;49.50;;;;;;5110772;28;20301;-73
2024/03/23 10:41:05;;;;;;;;;;;22.30;49.80;;;;;;5111307;28;19904;-74
2024/03/23 10:43:32;;;;;;;;;;;22.30;50.90;;;;;;5110810;28;19952;-74
2024/03/23 10:45:58;;;;;;;;;;;22.50;50.40;;;;;;5092740;28;19957;-73
2024/03/23 10:48:24;;;;;;;;;;;22.50;49.60;;;;;;5092800;28;19945;-74
2024/03/23 10:50:49;;;;;;;;;;;22.40;49.80;;;;;;5092525;28;19903;-72
2024/03/23 10:53:17;;;;;;;;;;;22.30;50.50;;;;;;5111098;28;19916;-74
2024/03/23 10:55:43;;;;;;;;;;;22.20;49.50;;;;;;5111185;28;20407;-73
2024/03/23 10:58:12;;;;;;;;;;;21.90;49.70;;;;;;5110688;28;19908;-74
2024/03/23 11:00:38;;;;;;;;;;;21.90;49.00;;;;;;5110980;28;19964;-73
2024/03/23 11:03:22;;;;;;;;;;;21.60;49.60;;;;;;5092281;28;19908;-74
2024/03/23 11:05:48;;;;;;;;;;;21.40;50.90;;;;;;5110727;28;20036;-72
2024/03/23 11:08:29;;;;;;;;;;;21.40;51.40;;;;;;5110706;28;19990;-73
2024/03/23 11:11:11;;;;;;;;;;;21.40;51.80;;;;;;5092346;28;19907;-73
2024/03/23 11:13:37;;;;;;;;;;;21.40;51.50;;;;;;5110500;28;19919;-73
2024/03/23 11:16:13;;;;;;;;;;;21.50;51.70;;;;;;5092289;28;19990;-75
2024/03/23 11:18:38;;;;;;;;;;;21.40;51.90;;;;;;5092209;28;19910;-73
2024/03/23 11:21:04;;;;;;;;;;;21.40;51.70;;;;;;5092587;28;19908;-74
2024/03/23 11:23:29;;;;;;;;;;;21.30;51.70;;;;;;5110272;28;19910;-72
2024/03/23 11:25:55;;;;;;;;;;;21.50;52.50;;;;;;5110304;28;19919;-74
2024/03/23 11:28:21;;;;;;;;;;;21.60;52.10;;;;;;5110511;28;19927;-74
2024/03/23 11:30:47;;;;;;;;;;;21.70;49.20;;;;;;5092116;28;19915;-73
2024/03/23 11:33:12;;;;;;;;;;;21.70;49.90;;;;;;5110016;28;19930;-73
2024/03/23 11:35:40;;;;;;;;;;;21.80;47.80;;;;;;5110117;28;19904;-73
2024/03/23 11:38:15;;;;;;;;;;;21.80;48.60;;;;;;5086344;28;20360;-74
2024/03/23 11:40:41;;;;;;;;;;;21.80;49.40;;;;;;5110248;28;19931;-73
2024/03/23 11:43:11;;;;;;;;;;;21.90;47.80;;;;;;5110108;28;19908;-74
2024/03/23 11:45:39;;;;;;;;;;;21.80;46.00;;;;;;5110189;28;20427;-74
2024/03/23 11:48:05;;;;;;;;;;;21.70;46.70;;;;;;5091898;28;19939;-74
2024/03/23 11:50:31;;;;;;;;;;;21.40;47.30;;;;;;5109996;28;19976;-74
2024/03/23 11:53:11;;;;;;;;;;;21.20;47.50;;;;;;5110103;28;19915;-74
2024/03/23 11:55:40;;;;;;;;;;;21.20;47.90;;;;;;5110180;28;20002;-74
2024/03/23 11:58:05;;;;;;;;;;;21.20;49.50;;;;;;5091761;28;20495;-74
2024/03/23 12:00:32;;;;;;;;;;;21.20;49.20;;;;;;5109859;28;19962;-72
2024/03/23 12:03:04;;;;;;;;;;;21.30;48.20;;;;;;5110072;28;19908;-74
2024/03/23 12:05:29;;;;;;;;;;;21.40;48.40;;;;;;5091612;28;19904;-73
2024/03/23 12:07:55;;;;;;;;;;;21.50;48.40;;;;;;5109752;28;19918;-73
2024/03/23 12:10:21;;;;;;;;;;;21.70;48.50;;;;;;5091798;28;19911;-74
2024/03/23 12:12:58;;;;;;;;;;;21.70;49.00;;;;;;5091881;28;20019;-72
2024/03/23 12:15:24;;;;;;;;;;;21.80;48.10;;;;;;5093060;28;19911;-73
2024/03/23 12:17:49;;;;;;;;;;;21.90;46.70;;;;;;5113865;28;19956;-74
2024/03/23 12:20:15;;;;;;;;;;;22.00;46.20;;;;;;5113894;28;19957;-74
2024/03/23 12:22:40;;;;;;;;;;;22.00;46.10;;;;;;5095346;28;19914;-73
2024/03/23 12:25:06;;;;;;;;;;;22.10;44.00;;;;;;5113642;28;19919;-74
2024/03/23 12:27:32;;;;;;;;;;;22.10;43.50;;;;;;5113685;28;19936;-75
2024/03/23 12:29:58;;;;;;;;;;;22.10;44.10;;;;;;5113647;28;19998;-73
2024/03/23 12:32:23;;;;;;;;;;;22.10;43.80;;;;;;5113585;28;19915;-73
2024/03/23 12:34:49;;;;;;;;;;;22.00;43.30;;;;;;5113519;28;20300;-74
2024/03/23 12:37:17;;;;;;;;;;;21.90;42.00;;;;;;5094838;28;20272;-73
2024/03/23 12:39:42;;;;;;;;;;;21.80;42.50;;;;;;5095255;28;19950;-73
2024/03/23 12:42:08;;;;;;;;;;;21.70;43.70;;;;;;5095178;28;19992;-73
2024/03/23 12:44:33;;;;;;;;;;;21.50;43.20;;;;;;5113406;28;19908;-74
2024/03/23 12:46:59;;;;;;;;;;;21.40;42.40;;;;;;5113464;28;20340;-74
2024/03/23 12:49:25;;;;;;;;;;;21.40;41.90;;;;;;5113262;28;19904;-73
2024/03/23 12:51:58;;;;;;;;;;;21.30;42.60;;;;;;5094874;28;19919;-74
2024/03/23 12:54:24;;;;;;;;;;;21.30;42.60;;;;;;5113513;28;19907;-74
2024/03/23 12:56:50;;;;;;;;;;;21.20;44.60;;;;;;5094768;28;19915;-73
2024/03/23 12:59:16;;;;;;;;;;;21.30;44.00;;;;;;5113182;28;19907;-72
2024/03/23 13:01:43;;;;;;;;;;;21.30;43.80;;;;;;5113450;28;19932;-73
2024/03/23 13:04:09;;;;;;;;;;;21.20;45.00;;;;;;5112974;28;20618;-73
2024/03/23 13:06:34;;;;;;;;;;;21.20;46.50;;;;;;5094920;28;19934;-73
2024/03/23 13:09:03;;;;;;;;;;;21.10;46.50;;;;;;5094693;28;19907;-74
2024/03/23 13:11:29;;;;;;;;;;;21.20;46.50;;;;;;5094649;28;19912;-73
2024/03/23 13:13:55;;;;;;;;;;;21.10;46.00;;;;;;5094623;28;20345;-72
2024/03/23 13:16:20;;;;;;;;;;;21.00;44.40;;;;;;5094556;28;20240;-73
2024/03/23 13:18:46;;;;;;;;;;;21.00;44.20;;;;;;5094478;28;19904;-73
2024/03/23 13:21:12;;;;;;;;;;;21.00;44.40;;;;;;5094589;28;19904;-74
2024/03/23 13:23:39;;;;;;;;;;;20.90;44.70;;;;;;5094492;28;20485;-74
2024/03/23 13:26:05;;;;;;;;;;;20.80;45.60;;;;;;5111903;28;20006;-74
2024/03/23 13:28:30;;;;;;;;;;;20.70;46.50;;;;;;5093932;28;20002;-72
2024/03/23 13:30:57;;;;;;;;;;;20.70;46.60;;;;;;5112147;28;20365;-72
2024/03/23 13:33:23;;;;;;;;;;;20.60;46.10;;;;;;5093857;28;19916;-73
2024/03/23 13:35:52;;;;;;;;;;;20.50;46.10;;;;;;5112218;28;19959;-73
2024/03/23 13:38:17;;;;;;;;;;;20.50;46.40;;;;;;5112208;28;20299;-73
2024/03/23 13:40:53;;;;;;;;;;;20.40;46.70;;;;;;5109783;28;19908;-73
2024/03/23 13:43:19;;;;;;;;;;;20.40;46.40;;;;;;5112048;28;19939;-74
2024/03/23 13:45:44;;;;;;;;;;;20.30;46.90;;;;;;5112190;28;19953;-73
2024/03/23 13:48:10;;;;;;;;;;;20.10;46.60;;;;;;5112255;28;19947;-73
2024/03/23 13:50:35;;;;;;;;;;;20.10;46.60;;;;;;5093723;28;20316;-74
2024/03/23 13:53:01;;;;;;;;;;;20.00;46.60;;;;;;5093622;28;19919;-73
2024/03/23 13:55:26;;;;;;;;;;;19.90;46.80;;;;;;5093481;28;20287;-73
2024/03/23 13:57:52;;;;;;;;;;;20.00;47.50;;;;;;5093889;28;20015;-73
2024/03/23 14:00:18;;;;;;;;;;;20.00;47.50;;;;;;5111766;28;19904;-73
2024/03/23 14:02:44;;;;;;;;;;;20.00;47.70;;;;;;5111943;28;19925;-73
2024/03/23 14:05:11;;;;;;;;;;;20.00;47.90;;;;;;5111781;28;20354;-73
2024/03/23 14:07:36;;;;;;;;;;;19.90;48.20;;;;;;5111539;28;19912;-73
2024/03/23 14:10:10;;;;;;;;;;;19.80;47.80;;;;;;5111576;28;19911;-74
2024/03/23 14:12:37;;;;;;;;;;;19.80;47.80;;;;;;5093274;28;19918;-72
2024/03/23 14:15:04;;;;;;;;;;;19.70;47.90;;;;;;5093321;28;19911;-73